createdAt,value
2018-10-11T00:00:30.248Z,25.27
2018-10-11T00:02:58.912Z,26.03
2018-10-11T00:05:27.486Z,27.97
2018-10-11T00:07:57.491Z,28.13
2018-10-11T00:10:26.154Z,28.60
2018-10-11T00:12:54.933Z,26.17
2018-10-11T00:15:23.907Z,29.60
2018-10-11T00:17:52.804Z,30.33
2018-10-11T00:20:21.708Z,28.33
2018-10-11T00:22:50.441Z,30.07
2018-10-11T00:25:19.186Z,28.20
2018-10-11T00:27:47.872Z,26.60
2018-10-11T00:30:16.437Z,27.67
2018-10-11T00:32:45.026Z,29.13
2018-10-11T00:35:14.563Z,31.73
2018-10-11T00:37:43.419Z,30.47
2018-10-11T00:40:13.238Z,31.53
2018-10-11T00:42:41.920Z,29.53
2018-10-11T00:45:10.797Z,32.23
2018-10-11T00:47:39.477Z,31.27
2018-10-11T00:50:08.221Z,32.07
2018-10-11T00:52:36.926Z,31.17
2018-10-11T00:55:05.621Z,32.63
2018-10-11T00:57:35.114Z,30.70
2018-10-11T01:00:03.934Z,30.37
2018-10-11T01:02:34.107Z,31.33
2018-10-11T01:05:03.352Z,33.33
2018-10-11T01:07:32.050Z,31.87
2018-10-11T01:10:00.658Z,31.73
2018-10-11T01:12:29.510Z,32.83
2018-10-11T01:14:58.095Z,36.53
2018-10-11T01:17:26.710Z,33.50
2018-10-11T01:19:55.395Z,37.57
2018-10-11T01:22:24.334Z,34.40
2018-10-11T01:24:53.114Z,31.30
2018-10-11T01:27:21.688Z,34.70
2018-10-11T01:29:50.471Z,39.00
2018-10-11T01:32:19.106Z,34.53
2018-10-11T01:34:47.734Z,33.83
2018-10-11T01:37:16.421Z,33.50
2018-10-11T01:39:45.449Z,36.53
2018-10-11T01:42:14.498Z,35.03
2018-10-11T01:44:43.646Z,35.77
2018-10-11T01:47:12.330Z,38.20
2018-10-11T01:49:40.921Z,37.27
2018-10-11T01:52:10.375Z,33.53
2018-10-11T01:54:39.549Z,37.03
2018-10-11T01:57:09.252Z,36.50
2018-10-11T01:59:38.048Z,39.47
2018-10-11T02:02:06.839Z,38.27
2018-10-11T02:04:35.614Z,36.47
2018-10-11T02:07:04.542Z,37.83
2018-10-11T02:09:33.423Z,37.50
2018-10-11T02:12:02.326Z,38.77
2018-10-11T02:14:31.074Z,41.17
2018-10-11T02:16:59.714Z,38.10
2018-10-11T02:19:28.462Z,39.23
2018-10-11T02:21:57.189Z,38.63
2018-10-11T02:24:25.882Z,39.13
2018-10-11T02:26:55.128Z,42.70
2018-10-11T02:29:24.184Z,38.10
2018-10-11T02:31:52.957Z,37.60
2018-10-11T02:34:21.635Z,40.83
2018-10-11T02:36:50.219Z,36.13
2018-10-11T02:39:18.865Z,41.67
2018-10-11T02:41:47.513Z,36.43
2018-10-11T02:44:16.582Z,37.43
2018-10-11T02:46:45.425Z,41.87
2018-10-11T02:49:14.094Z,40.63
2018-10-11T02:51:42.674Z,38.60
2018-10-11T02:54:11.319Z,38.50
2018-10-11T02:56:40.087Z,40.60
2018-10-11T02:59:45.990Z,44.43
2018-10-11T03:02:15.268Z,42.17
2018-10-11T03:04:45.748Z,41.70
2018-10-11T03:07:14.457Z,43.53
2018-10-11T03:09:43.778Z,47.30
2018-10-11T03:12:13.315Z,42.40
2018-10-11T03:14:42.230Z,42.07
2018-10-11T03:17:11.378Z,40.00
2018-10-11T03:19:40.586Z,43.90
2018-10-11T03:22:09.529Z,42.97
2018-10-11T03:24:38.483Z,43.70
2018-10-11T03:27:07.578Z,43.93
2018-10-11T03:29:36.841Z,47.00
2018-10-11T03:32:05.445Z,43.47
2018-10-11T03:34:34.021Z,41.63
2018-10-11T03:37:02.614Z,42.07
2018-10-11T03:39:31.210Z,43.00
2018-10-11T03:42:00.281Z,45.03
2018-10-11T03:44:29.914Z,43.97
2018-10-11T03:46:58.938Z,44.47
2018-10-11T03:49:27.754Z,47.97
2018-10-11T03:51:56.523Z,47.43
2018-10-11T03:54:25.102Z,45.43
2018-10-11T03:56:53.677Z,45.97
2018-10-11T03:59:22.506Z,46.90
2018-10-11T04:01:51.337Z,47.70
2018-10-11T04:04:20.136Z,51.17
2018-10-11T04:06:49.650Z,50.30
2018-10-11T04:09:18.269Z,49.93
2018-10-11T04:11:46.852Z,49.37
2018-10-11T04:14:15.471Z,48.03
2018-10-11T04:16:44.145Z,47.27
2018-10-11T04:19:12.900Z,50.60
2018-10-11T04:21:41.484Z,52.70
2018-10-11T04:24:10.133Z,55.87
2018-10-11T04:26:39.277Z,50.70
2018-10-11T04:29:07.899Z,50.63
2018-10-11T04:31:36.465Z,50.73
2018-10-11T04:34:05.081Z,50.67
2018-10-11T04:36:33.758Z,48.83
2018-10-11T04:39:02.696Z,50.80
2018-10-11T04:41:31.469Z,49.80
2018-10-11T04:44:00.237Z,53.07
2018-10-11T04:46:28.990Z,49.57
2018-10-11T04:48:57.725Z,51.80
2018-10-11T04:51:26.351Z,51.93
2018-10-11T04:53:56.785Z,52.97
2018-10-11T04:56:27.158Z,50.50
2018-10-11T04:58:56.150Z,57.07
2018-10-11T05:01:25.323Z,54.60
2018-10-11T05:03:54.317Z,53.93
2018-10-11T05:06:23.123Z,53.77
2018-10-11T05:08:51.853Z,56.47
2018-10-11T05:11:20.925Z,56.70
2018-10-11T05:13:51.137Z,54.57
2018-10-11T05:16:20.374Z,57.23
2018-10-11T05:21:21.937Z,52.30
2018-10-11T05:23:51.274Z,53.87
2018-10-11T05:26:19.937Z,51.80
2018-10-11T05:28:49.038Z,51.63
2018-10-11T05:31:17.664Z,59.13
2018-10-11T05:33:46.293Z,57.37
2018-10-11T05:36:15.745Z,56.80
2018-10-11T05:38:45.114Z,51.30
2018-10-11T05:41:13.938Z,57.30
2018-10-11T05:43:42.669Z,55.43
2018-10-11T05:46:25.521Z,54.67
2018-10-11T05:48:54.325Z,54.70
2018-10-11T05:51:23.219Z,62.03
2018-10-11T05:53:54.629Z,58.40
2018-10-11T05:56:24.490Z,62.67
2018-10-11T05:58:53.446Z,57.00
2018-10-11T06:01:22.512Z,53.17
2018-10-11T06:06:20.463Z,52.20
2018-10-11T06:08:49.254Z,56.80
2018-10-11T06:11:18.290Z,58.60
2018-10-11T06:13:48.186Z,45.97
2018-10-11T06:16:16.927Z,47.03
2018-10-11T06:18:46.177Z,44.37
2018-10-11T06:21:15.624Z,48.77
2018-10-11T06:23:44.766Z,45.27
2018-10-11T06:26:14.488Z,44.43
2018-10-11T06:28:43.608Z,46.40
2018-10-11T06:31:13.749Z,45.80
2018-10-11T06:33:43.397Z,49.90
2018-10-11T06:36:12.079Z,49.37
2018-10-11T06:38:40.919Z,47.13
2018-10-11T06:41:09.506Z,46.53
2018-10-11T06:43:38.179Z,53.43
2018-10-11T06:46:07.160Z,50.87
2018-10-11T06:48:36.049Z,47.53
2018-10-11T06:51:04.882Z,50.47
2018-10-11T06:53:33.738Z,46.93
2018-10-11T06:56:03.282Z,46.90
2018-10-11T06:58:32.130Z,44.87
2018-10-11T07:01:01.154Z,43.93
2018-10-11T07:03:29.804Z,48.47
2018-10-11T07:05:58.630Z,45.97
2018-10-11T07:08:27.314Z,48.43
2018-10-11T07:10:56.594Z,46.00
2018-10-11T07:13:25.325Z,50.03
2018-10-11T07:15:54.091Z,43.90
2018-10-11T07:18:23.222Z,44.60
2018-10-11T07:20:51.911Z,50.57
2018-10-11T07:23:20.485Z,50.80
2018-10-11T07:25:49.232Z,47.63
2018-10-11T07:28:18.304Z,44.43
2018-10-11T07:30:46.950Z,46.00
2018-10-11T07:33:15.777Z,43.23
2018-10-11T07:35:44.441Z,44.80
2018-10-11T07:38:12.979Z,45.43
2018-10-11T07:40:41.983Z,45.33
2018-10-11T07:43:11.662Z,42.77
2018-10-11T07:45:40.603Z,45.53
2018-10-11T07:48:09.345Z,43.80
2018-10-11T07:50:38.127Z,47.43
2018-10-11T07:53:06.831Z,43.90
2018-10-11T07:55:35.969Z,43.23
2018-10-11T07:58:05.030Z,46.90
2018-10-11T08:00:33.878Z,49.23
2018-10-11T08:03:03.402Z,46.43
2018-10-11T08:05:32.010Z,46.30
2018-10-11T08:08:00.646Z,45.33
2018-10-11T08:10:29.357Z,41.37
2018-10-11T08:12:58.333Z,43.07
2018-10-11T08:15:26.986Z,40.20
2018-10-11T08:17:56.261Z,42.47
2018-10-11T08:20:25.279Z,42.07
2018-10-11T08:22:54.764Z,43.60
2018-10-11T08:25:23.669Z,39.97
2018-10-11T08:27:52.992Z,40.37
2018-10-11T08:30:21.730Z,39.33
2018-10-11T08:32:50.443Z,38.57
2018-10-11T08:35:19.565Z,41.77
2018-10-11T08:37:48.384Z,39.37
2018-10-11T08:40:17.351Z,43.63
2018-10-11T08:42:46.258Z,38.57
2018-10-11T08:45:15.200Z,39.40
2018-10-11T08:47:43.878Z,38.17
2018-10-11T08:50:12.931Z,37.87
2018-10-11T08:52:41.745Z,38.43
2018-10-11T08:55:10.373Z,37.53
2018-10-11T08:57:39.264Z,37.73
2018-10-11T09:00:09.723Z,37.10
2018-10-11T09:02:38.580Z,32.20
2018-10-11T09:05:07.287Z,38.20
2018-10-11T09:07:36.066Z,34.83
2018-10-11T09:10:05.426Z,35.73
2018-10-11T09:12:34.270Z,32.43
2018-10-11T09:15:02.822Z,34.30
2018-10-11T09:17:31.549Z,37.63
2018-10-11T09:20:00.360Z,30.63
2018-10-11T09:22:29.300Z,35.87
2018-10-11T09:24:58.070Z,29.20
2018-10-11T09:27:26.626Z,26.90
2018-10-11T09:29:55.798Z,27.93
2018-10-11T09:32:24.467Z,27.27
2018-10-11T09:34:53.066Z,28.73
2018-10-11T09:37:22.667Z,27.47
2018-10-11T09:39:51.826Z,26.40
2018-10-11T09:42:21.452Z,23.53
2018-10-11T09:44:50.246Z,22.03
2018-10-11T09:47:18.844Z,24.40
2018-10-11T09:49:48.177Z,25.27
2018-10-11T09:52:17.378Z,19.90
2018-10-11T09:54:48.363Z,21.73
2018-10-11T09:57:23.265Z,25.70
2018-10-11T09:59:51.976Z,23.33
2018-10-11T10:02:20.950Z,20.60
2018-10-11T10:04:50.835Z,19.73
2018-10-11T10:07:19.851Z,19.03
2018-10-11T10:09:49.017Z,17.87
2018-10-11T10:12:18.274Z,17.83
2018-10-11T10:14:48.515Z,16.97
2018-10-11T10:17:17.252Z,19.90
2018-10-11T10:19:46.189Z,21.53
2018-10-11T10:22:14.813Z,18.33
2018-10-11T10:24:43.418Z,17.20
2018-10-11T10:27:12.445Z,15.67
2018-10-11T10:29:41.598Z,15.90
2018-10-11T10:32:10.884Z,17.30
2018-10-11T10:34:39.726Z,13.40
2018-10-11T10:37:08.424Z,16.30
2018-10-11T10:39:37.012Z,15.30
2018-10-11T10:42:05.635Z,16.30
2018-10-11T10:44:34.321Z,16.87
2018-10-11T10:47:04.374Z,14.90
2018-10-11T10:49:32.988Z,13.97
2018-10-11T10:52:02.125Z,14.73
2018-10-11T10:54:31.944Z,14.40
2018-10-11T10:57:01.023Z,15.10
2018-10-11T10:59:30.560Z,15.93
2018-10-11T11:01:59.120Z,14.60
2018-10-11T11:04:27.764Z,14.73
2018-10-11T11:06:56.403Z,13.03
2018-10-11T11:09:25.125Z,15.23
2018-10-11T11:11:53.728Z,14.30
2018-10-11T11:14:22.395Z,15.13
2018-10-11T11:16:51.067Z,13.70
2018-10-11T11:19:19.800Z,13.57
2018-10-11T11:21:48.386Z,13.57
2018-10-11T11:24:17.072Z,11.17
2018-10-11T11:26:45.609Z,11.57
2018-10-11T11:29:14.385Z,12.40
2018-10-11T11:31:43.147Z,10.87
2018-10-11T11:34:11.829Z,13.73
2018-10-11T11:36:40.417Z,14.93
2018-10-11T11:39:10.146Z,12.57
2018-10-11T11:41:38.816Z,10.30
2018-10-11T11:44:07.410Z,12.50
2018-10-11T11:46:36.058Z,10.83
2018-10-11T11:49:04.698Z,14.23
2018-10-11T11:51:33.370Z,13.33
2018-10-11T11:54:02.074Z,12.33
2018-10-11T11:56:30.653Z,11.03
2018-10-11T11:58:59.325Z,10.93
2018-10-11T12:01:27.947Z,11.30
2018-10-11T12:03:56.642Z,9.70
2018-10-11T12:06:25.224Z,11.40
2018-10-11T12:08:54.019Z,14.90
2018-10-11T12:11:22.728Z,13.17
2018-10-11T12:13:52.505Z,13.53
2018-10-11T12:16:21.068Z,11.57
2018-10-11T12:18:49.650Z,14.47
2018-10-11T12:21:18.215Z,12.10
2018-10-11T12:23:46.818Z,10.90
2018-10-11T12:26:15.941Z,11.55
2018-10-11T12:28:44.635Z,17.80
2018-10-11T12:31:13.998Z,14.20
2018-10-11T12:33:42.569Z,11.67
2018-10-11T12:36:11.289Z,12.27
2018-10-11T12:38:39.935Z,15.77
2018-10-11T12:41:08.723Z,13.33
2018-10-11T12:43:37.313Z,15.03
2018-10-11T12:46:06.419Z,14.07
2018-10-11T12:48:35.270Z,14.90
2018-10-11T12:51:03.956Z,13.60
2018-10-11T12:53:32.562Z,10.83
2018-10-11T12:56:01.128Z,14.83
2018-10-11T12:58:29.730Z,14.90
2018-10-11T13:00:58.395Z,12.13
2018-10-11T13:03:27.226Z,12.97
2018-10-11T13:05:56.014Z,12.10
2018-10-11T13:08:24.703Z,12.53
2018-10-11T13:10:53.299Z,11.40
2018-10-11T13:13:21.915Z,15.27
2018-10-11T13:15:50.516Z,20.67
2018-10-11T13:18:19.384Z,14.90
2018-10-11T13:20:47.963Z,12.80
2018-10-11T13:23:18.710Z,13.08
2018-10-11T13:25:46.118Z,12.37
2018-10-11T13:28:15.274Z,11.00
2018-10-11T13:30:43.871Z,13.85
2018-10-11T13:33:13.044Z,17.40
2018-10-11T13:35:41.669Z,14.78
2018-10-11T13:38:11.025Z,17.70
2018-10-11T13:40:39.694Z,14.33
2018-10-11T13:43:09.034Z,19.50
2018-10-11T13:45:37.888Z,14.55
2018-10-11T13:48:07.807Z,22.60
2018-10-11T13:50:37.140Z,21.02
2018-10-11T13:53:07.060Z,12.58
2018-10-11T13:55:36.555Z,18.60
2018-10-11T13:58:05.729Z,13.60
2018-10-11T14:00:34.330Z,13.32
2018-10-11T14:03:03.500Z,14.03
2018-10-11T14:05:32.073Z,12.53
2018-10-11T14:08:01.230Z,15.00
2018-10-11T14:10:30.415Z,12.95
2018-10-11T14:12:59.258Z,13.03
2018-10-11T14:15:28.105Z,13.93
2018-10-11T14:17:58.679Z,13.83
2018-10-11T14:20:26.139Z,12.03
2018-10-11T14:22:55.329Z,13.43
2018-10-11T14:25:23.914Z,13.48
2018-10-11T14:27:53.183Z,11.22
2018-10-11T14:30:22.410Z,12.68
2018-10-11T14:32:51.807Z,12.07
2018-10-11T14:35:20.353Z,12.13
2018-10-11T14:37:48.975Z,11.10
2018-10-11T14:40:18.238Z,12.45
2018-10-11T14:42:46.994Z,10.60
2018-10-11T14:45:15.574Z,12.15
2018-10-11T14:47:44.723Z,11.53
2018-10-11T14:50:13.840Z,12.70
2018-10-11T14:52:43.026Z,11.33
2018-10-11T14:55:12.187Z,14.33
2018-10-11T14:57:41.357Z,12.07
2018-10-11T15:00:10.318Z,9.85
2018-10-11T15:02:39.653Z,14.20
2018-10-11T15:05:08.582Z,13.83
2018-10-11T15:07:37.150Z,12.82
2018-10-11T15:10:06.019Z,11.57
2018-10-11T15:12:35.147Z,12.93
2018-10-11T15:15:04.331Z,11.20
2018-10-11T15:17:32.970Z,14.07
2018-10-11T15:20:02.132Z,15.03
2018-10-11T15:22:36.206Z,17.37
2018-10-11T15:25:05.749Z,18.50
2018-10-11T15:27:34.551Z,16.65
2018-10-11T15:30:03.119Z,19.23
2018-10-11T15:32:32.261Z,21.75
2018-10-11T15:35:01.540Z,29.35
2018-10-11T15:37:30.378Z,26.13
2018-10-11T15:39:59.651Z,23.15
2018-10-11T15:42:28.238Z,22.37
2018-10-11T15:44:57.011Z,23.63
2018-10-11T15:47:25.603Z,17.53
2018-10-11T15:49:54.145Z,24.97
2018-10-11T15:52:22.702Z,21.73
2018-10-11T15:54:51.533Z,28.87
2018-10-11T15:57:20.262Z,18.77
2018-10-11T15:59:48.908Z,23.53
2018-10-11T16:02:17.491Z,21.07
2018-10-11T16:04:46.074Z,21.23
2018-10-11T16:07:14.711Z,17.83
2018-10-11T16:09:43.289Z,16.70
2018-10-11T16:12:11.962Z,19.53
2018-10-11T16:14:40.638Z,17.57
2018-10-11T16:17:09.247Z,22.37
2018-10-11T16:19:37.815Z,23.10
2018-10-11T16:22:06.449Z,20.07
2018-10-11T16:24:35.101Z,22.57
2018-10-11T16:27:03.933Z,20.83
2018-10-11T16:29:32.634Z,23.00
2018-10-11T16:32:01.440Z,21.17
2018-10-11T16:34:30.000Z,21.93
2018-10-11T16:36:58.590Z,23.50
2018-10-11T16:39:27.130Z,23.63
2018-10-11T16:41:55.727Z,23.50
2018-10-11T16:44:24.299Z,23.83
2018-10-11T16:46:52.905Z,23.13
2018-10-11T16:49:21.688Z,27.67
2018-10-11T16:51:50.247Z,24.03
2018-10-11T16:54:18.820Z,23.50
2018-10-11T16:56:47.386Z,21.23
2018-10-11T16:59:15.952Z,22.57
2018-10-11T17:01:44.614Z,23.23
2018-10-11T17:04:13.432Z,21.93
2018-10-11T17:06:42.379Z,22.13
2018-10-11T17:09:11.909Z,25.00
2018-10-11T17:11:40.462Z,19.77
2018-10-11T17:14:09.090Z,19.40
2018-10-11T17:16:37.653Z,19.03
2018-10-11T17:19:06.269Z,17.00
2018-10-11T17:21:35.031Z,17.43
2018-10-11T17:24:03.858Z,18.63
2018-10-11T17:26:32.518Z,17.83
2018-10-11T17:29:01.069Z,21.47
2018-10-11T17:31:29.619Z,19.27
2018-10-11T17:33:58.365Z,23.13
2018-10-11T17:36:26.907Z,21.10
2018-10-11T17:38:56.493Z,23.93
2018-10-11T17:41:25.923Z,23.17
2018-10-11T17:43:54.613Z,27.00
2018-10-11T17:46:23.427Z,22.63
2018-10-11T17:48:52.093Z,20.80
2018-10-11T17:51:20.782Z,25.07
2018-10-11T17:53:49.356Z,21.73
2018-10-11T17:56:17.919Z,19.37
2018-10-11T17:58:48.382Z,23.40
2018-10-11T18:01:17.428Z,20.03
2018-10-11T18:03:46.270Z,22.67
2018-10-11T18:06:14.974Z,20.27
2018-10-11T18:08:43.575Z,20.37
2018-10-11T18:11:12.158Z,20.67
2018-10-11T18:13:40.870Z,23.73
2018-10-11T18:16:09.529Z,23.27
2018-10-11T18:18:38.363Z,25.47
2018-10-11T18:21:07.025Z,24.70
2018-10-11T18:23:35.825Z,27.90
2018-10-11T18:26:04.439Z,23.43
2018-10-11T18:28:33.058Z,26.00
2018-10-11T18:31:01.722Z,27.53
2018-10-11T18:33:30.373Z,28.00
2018-10-11T18:35:59.010Z,29.33
2018-10-11T18:38:28.143Z,30.83
2018-10-11T18:40:57.919Z,26.53
2018-10-11T18:43:26.671Z,21.77
2018-10-11T18:45:55.650Z,24.20
2018-10-11T18:48:24.215Z,21.47
2018-10-11T18:50:52.891Z,22.47
2018-10-11T18:53:21.672Z,24.10
2018-10-11T18:55:51.190Z,23.03
2018-10-11T18:58:19.731Z,24.37
2018-10-11T19:00:49.145Z,24.33
2018-10-11T19:03:17.893Z,25.23
2018-10-11T19:05:46.550Z,21.93
2018-10-11T19:08:15.124Z,25.37
2018-10-11T19:10:43.691Z,23.37
2018-10-11T19:13:12.307Z,25.30
2018-10-11T19:15:40.935Z,25.30
2018-10-11T19:18:09.529Z,24.07
2018-10-11T19:20:38.290Z,22.20
2018-10-11T19:23:07.109Z,23.97
2018-10-11T19:25:35.697Z,22.83
2018-10-11T19:28:04.255Z,22.37
2018-10-11T19:30:32.912Z,26.00
2018-10-11T19:33:03.553Z,25.20
2018-10-11T19:35:32.589Z,27.07
2018-10-11T19:38:01.296Z,28.07
2018-10-11T19:40:30.433Z,23.97
2018-10-11T19:42:59.209Z,22.30
2018-10-11T19:45:27.833Z,26.00
2018-10-11T19:47:56.693Z,27.20
2018-10-11T19:50:25.456Z,22.93
2018-10-11T19:52:54.257Z,27.03
2018-10-11T19:55:22.910Z,29.10
2018-10-11T19:57:51.670Z,26.97
2018-10-11T20:00:20.286Z,29.33
2018-10-11T20:02:48.998Z,25.60
2018-10-11T20:05:17.613Z,24.40
2018-10-11T20:07:46.222Z,24.97
2018-10-11T20:10:14.782Z,28.47
2018-10-11T20:12:43.329Z,25.13
2018-10-11T20:15:11.889Z,23.63
2018-10-11T20:17:40.690Z,25.30
2018-10-11T20:20:09.446Z,26.17
2018-10-11T20:22:38.034Z,22.90
2018-10-11T20:25:06.948Z,24.10
2018-10-11T20:27:35.518Z,22.53
2018-10-11T20:30:04.116Z,24.63
2018-10-11T20:32:32.729Z,30.20
2018-10-11T20:35:01.326Z,27.37
2018-10-11T20:37:30.122Z,31.97
2018-10-11T20:39:58.778Z,28.30
2018-10-11T20:42:27.345Z,25.13
2018-10-11T20:44:55.958Z,26.80
2018-10-11T20:47:24.534Z,25.67
2018-10-11T20:49:53.092Z,24.57
2018-10-11T20:52:21.662Z,24.93
2018-10-11T20:54:50.443Z,22.40
2018-10-11T20:57:19.176Z,25.37
2018-10-11T20:59:47.932Z,26.40
2018-10-11T21:02:16.510Z,25.23
2018-10-11T21:04:45.130Z,26.27
2018-10-11T21:07:13.710Z,26.20
2018-10-11T21:09:42.405Z,24.37
2018-10-11T21:12:11.147Z,27.37
2018-10-11T21:14:39.848Z,25.50
2018-10-11T21:17:08.390Z,26.93
2018-10-11T21:19:36.930Z,28.77
2018-10-11T21:22:05.546Z,28.03
2018-10-11T21:24:34.089Z,27.80
2018-10-11T21:27:03.118Z,28.90
2018-10-11T21:29:31.792Z,26.47
2018-10-11T21:32:00.381Z,31.20
2018-10-11T21:34:29.164Z,31.77
2018-10-11T21:36:57.886Z,32.37
2018-10-11T21:39:26.447Z,33.37
2018-10-11T21:41:54.991Z,31.57
2018-10-11T21:44:23.570Z,34.60
2018-10-11T21:46:52.312Z,33.73
2018-10-11T21:49:20.943Z,30.07
2018-10-11T21:51:49.534Z,32.47
2018-10-11T21:54:18.199Z,33.83
2018-10-11T21:56:49.703Z,35.27
2018-10-11T21:59:18.528Z,34.60
2018-10-11T22:01:47.104Z,32.13
2018-10-11T22:04:15.688Z,34.13
2018-10-11T22:06:44.260Z,38.23
2018-10-11T22:09:12.894Z,32.83
2018-10-11T22:11:41.545Z,35.60
2018-10-11T22:14:10.138Z,40.47
2018-10-11T22:16:38.703Z,39.23
2018-10-11T22:19:07.614Z,45.47
2018-10-11T22:21:36.186Z,45.70
2018-10-11T22:24:04.843Z,42.00
2018-10-11T22:26:33.499Z,34.10
2018-10-11T22:29:02.144Z,37.37
2018-10-11T22:31:30.698Z,37.07
2018-10-11T22:33:59.281Z,38.53
2018-10-11T22:36:27.912Z,38.60
2018-10-11T22:38:56.654Z,40.33
2018-10-11T22:41:25.237Z,41.00
2018-10-11T22:43:54.023Z,46.30
2018-10-11T22:46:23.146Z,40.00
2018-10-11T22:48:51.759Z,39.43
2018-10-11T22:51:20.337Z,41.73
2018-10-11T22:53:50.134Z,44.97
2018-10-11T22:56:22.208Z,42.77
2018-10-11T22:58:51.759Z,43.33
2018-10-11T23:01:20.514Z,45.73
2018-10-11T23:03:49.086Z,45.50
2018-10-11T23:06:17.642Z,42.50
2018-10-11T23:08:46.217Z,43.87
2018-10-11T23:11:14.882Z,45.93
2018-10-11T23:13:43.509Z,43.53
2018-10-11T23:16:12.242Z,44.97
2018-10-11T23:18:41.503Z,45.57
2018-10-11T23:21:10.676Z,46.23
2018-10-11T23:23:39.222Z,45.73
2018-10-11T23:26:08.161Z,47.07
2018-10-11T23:28:36.727Z,49.00
2018-10-11T23:31:05.353Z,51.60
2018-10-11T23:33:33.959Z,47.00
2018-10-11T23:36:02.958Z,49.83
2018-10-11T23:38:31.586Z,51.07
2018-10-11T23:41:00.120Z,54.97
2018-10-11T23:43:28.683Z,48.47
2018-10-11T23:45:57.237Z,47.77
2018-10-11T23:48:25.902Z,52.20
2018-10-11T23:50:55.043Z,56.17
2018-10-11T23:53:23.605Z,56.83
2018-10-11T23:55:52.148Z,54.97
2018-10-11T23:58:20.707Z,58.03
